sensor_id;sensor_type;location;lat;lon;timestamp;pressure;altitude;pressure_sealevel;temperature;humidity
73821;BME280;62150;43.582;1.456;2024-02-14T04:38:41;100818.56;;;9.63;100.00
73821;BME280;62150;43.582;1.456;2024-02-14T04:41:09;100811.91;;;9.90;100.00
73821;BME280;62150;43.582;1.456;2024-02-14T04:43:37;100803.16;;;9.97;100.00
73821;BME280;62150;43.582;1.456;2024-02-14T04:46:04;100800.28;;;10.07;100.00
73821;BME280;62150;43.582;1.456;2024-02-14T04:48:33;100802.88;;;10.07;100.00
73821;BME280;62150;43.582;1.456;2024-02-14T04:51:00;100798.50;;;10.11;100.00
73821;BME280;62150;43.582;1.456;2024-02-14T04:53:28;100805.44;;;10.07;100.00
73821;BME280;62150;43.582;1.456;2024-02-14T04:55:57;100809.69;;;10.08;100.00
73821;BME280;62150;43.582;1.456;2024-02-14T04:58:25;100802.59;;;10.20;100.00
73821;BME280;62150;43.582;1.456;2024-02-14T05:00:53;100804.19;;;10.24;100.00
73821;BME280;62150;43.582;1.456;2024-02-14T05:03:21;100805.88;;;10.25;100.00
73821;BME280;62150;43.582;1.456;2024-02-14T05:05:50;100811.72;;;10.30;100.00
73821;BME280;62150;43.582;1.456;2024-02-14T05:08:18;100807.41;;;10.32;100.00
73821;BME280;62150;43.582;1.456;2024-02-14T05:10:45;100808.34;;;10.28;100.00
73821;BME280;62150;43.582;1.456;2024-02-14T05:13:14;100807.56;;;10.26;100.00
73821;BME280;62150;43.582;1.456;2024-02-14T05:15:42;100811.09;;;10.22;100.00
73821;BME280;62150;43.582;1.456;2024-02-14T05:18:09;100806.88;;;10.18;100.00
73821;BME280;62150;43.582;1.456;2024-02-14T05:20:37;100812.72;;;10.24;100.00
73821;BME280;62150;43.582;1.456;2024-02-14T05:23:05;100809.31;;;10.24;100.00
73821;BME280;62150;43.582;1.456;2024-02-14T05:25:32;100802.59;;;10.20;100.00
73821;BME280;62150;43.582;1.456;2024-02-14T05:28:00;100809.41;;;10.21;100.00
73821;BME280;62150;43.582;1.456;2024-02-14T05:30:29;100807.59;;;10.24;100.00
73821;BME280;62150;43.582;1.456;2024-02-14T05:32:57;100804.31;;;10.18;100.00
73821;BME280;62150;43.582;1.456;2024-02-14T05:35:25;100808.59;;;10.17;100.00
73821;BME280;62150;43.582;1.456;2024-02-14T05:37:52;100815.38;;;10.21;100.00
73821;BME280;62150;43.582;1.456;2024-02-14T05:40:20;100804.31;;;10.18;100.00
73821;BME280;62150;43.582;1.456;2024-02-14T05:42:48;100814.50;;;10.22;100.00
73821;BME280;62150;43.582;1.456;2024-02-14T05:45:15;100813.75;;;10.17;100.00
73821;BME280;62150;43.582;1.456;2024-02-14T05:47:44;100806.84;;;10.21;100.00
73821;BME280;62150;43.582;1.456;2024-02-14T05:50:12;100805.16;;;10.20;100.00
73821;BME280;62150;43.582;1.456;2024-02-14T05:52:39;100806.97;;;10.15;100.00
73821;BME280;62150;43.582;1.456;2024-02-14T05:55:07;100806.06;;;10.16;100.00
73821;BME280;62150;43.582;1.456;2024-02-14T05:57:35;100802.72;;;10.14;100.00
73821;BME280;62150;43.582;1.456;2024-02-14T06:00:04;100800.94;;;10.16;100.00
73821;BME280;62150;43.582;1.456;2024-02-14T06:02:31;100801.91;;;10.12;100.00
73821;BME280;62150;43.582;1.456;2024-02-14T06:05:00;100801.03;;;10.13;100.00
73821;BME280;62150;43.582;1.456;2024-02-14T06:07:28;100794.47;;;10.02;100.00
73821;BME280;62150;43.582;1.456;2024-02-14T06:09:55;100803.00;;;10.03;100.00
73821;BME280;62150;43.582;1.456;2024-02-14T06:12:23;100802.97;;;10.04;100.00
73821;BME280;62150;43.582;1.456;2024-02-14T06:14:50;100809.16;;;9.97;100.00
73821;BME280;62150;43.582;1.456;2024-02-14T06:17:17;100811.59;;;10.02;100.00
73821;BME280;62150;43.582;1.456;2024-02-14T06:19:45;100809.84;;;10.04;100.00
73821;BME280;62150;43.582;1.456;2024-02-14T06:22:14;100822.81;;;9.98;100.00
73821;BME280;62150;43.582;1.456;2024-02-14T06:24:41;100828.72;;;10.01;100.00
73821;BME280;62150;43.582;1.456;2024-02-14T06:27:09;100837.38;;;9.97;100.00
73821;BME280;62150;43.582;1.456;2024-02-14T06:29:36;100839.06;;;9.98;100.00
73821;BME280;62150;43.582;1.456;2024-02-14T06:32:04;100844.22;;;9.97;100.00
73821;BME280;62150;43.582;1.456;2024-02-14T06:34:32;100851.09;;;9.96;100.00
73821;BME280;62150;43.582;1.456;2024-02-14T06:37:00;100849.34;;;9.98;100.00
73821;BME280;62150;43.582;1.456;2024-02-14T06:39:29;100840.81;;;9.96;100.00
73821;BME280;62150;43.582;1.456;2024-02-14T06:41:56;100844.31;;;9.94;100.00
73821;BME280;62150;43.582;1.456;2024-02-14T06:44:24;100853.69;;;9.95;100.00
73821;BME280;62150;43.582;1.456;2024-02-14T06:46:52;100849.38;;;9.97;100.00
73821;BME280;62150;43.582;1.456;2024-02-14T06:49:19;100855.50;;;9.91;100.00
73821;BME280;62150;43.582;1.456;2024-02-14T06:51:47;100859.75;;;9.92;100.00
73821;BME280;62150;43.582;1.456;2024-02-14T06:54:14;100859.81;;;9.89;100.00
73821;BME280;62150;43.582;1.456;2024-02-14T06:56:44;100848.69;;;9.90;100.00
73821;BME280;62150;43.582;1.456;2024-02-14T06:59:12;100850.31;;;9.93;100.00
73821;BME280;62150;43.582;1.456;2024-02-14T07:01:39;100852.22;;;9.85;100.00
73821;BME280;62150;43.582;1.456;2024-02-14T07:04:07;100865.72;;;9.93;100.00
73821;BME280;62150;43.582;1.456;2024-02-14T07:06:34;100863.97;;;9.95;100.00
73821;BME280;62150;43.582;1.456;2024-02-14T07:09:02;100867.41;;;9.94;100.00
73821;BME280;62150;43.582;1.456;2024-02-14T07:11:29;100872.47;;;9.97;100.00
73821;BME280;62150;43.582;1.456;2024-02-14T07:13:58;100872.66;;;9.89;100.00
73821;BME280;62150;43.582;1.456;2024-02-14T07:16:25;100874.41;;;9.87;100.00
73821;BME280;62150;43.582;1.456;2024-02-14T07:18:53;100872.00;;;9.81;100.00
73821;BME280;62150;43.582;1.456;2024-02-14T07:21:21;100875.38;;;9.83;100.00
73821;BME280;62150;43.582;1.456;2024-02-14T07:23:49;100877.91;;;9.85;100.00
73821;BME280;62150;43.582;1.456;2024-02-14T07:26:16;100879.72;;;9.80;100.00
73821;BME280;62150;43.582;1.456;2024-02-14T07:28:44;100876.22;;;9.84;100.00
73821;BME280;62150;43.582;1.456;2024-02-14T07:31:13;100880.47;;;9.85;100.00
73821;BME280;62150;43.582;1.456;2024-02-14T07:33:40;100886.53;;;9.81;100.00
73821;BME280;62150;43.582;1.456;2024-02-14T07:36:09;100880.63;;;9.77;100.00
73821;BME280;62150;43.582;1.456;2024-02-14T07:38:36;100879.69;;;9.81;100.00
73821;BME280;62150;43.582;1.456;2024-02-14T07:41:04;100879.72;;;9.80;100.00
73821;BME280;62150;43.582;1.456;2024-02-14T07:43:31;100877.97;;;9.82;100.00
73821;BME280;62150;43.582;1.456;2024-02-14T07:45:59;100880.44;;;9.86;100.00
73821;BME280;62150;43.582;1.456;2024-02-14T07:48:28;100878.75;;;9.85;100.00
73821;BME280;62150;43.582;1.456;2024-02-14T07:50:56;100883.09;;;9.82;100.00
73821;BME280;62150;43.582;1.456;2024-02-14T07:53:25;100890.75;;;9.83;100.00
73821;BME280;62150;43.582;1.456;2024-02-14T07:55:52;100903.50;;;9.88;100.00
73821;BME280;62150;43.582;1.456;2024-02-14T07:58:20;100909.47;;;9.88;100.00
73821;BME280;62150;43.582;1.456;2024-02-14T08:00:48;100907.63;;;9.93;100.00
73821;BME280;62150;43.582;1.456;2024-02-14T08:03:15;100917.97;;;9.90;100.00
73821;BME280;62150;43.582;1.456;2024-02-14T08:05:44;100911.84;;;9.96;100.00
73821;BME280;62150;43.582;1.456;2024-02-14T08:08:12;100913.63;;;9.94;100.00
73821;BME280;62150;43.582;1.456;2024-02-14T08:10:39;100912.84;;;9.90;100.00
73821;BME280;62150;43.582;1.456;2024-02-14T08:13:07;100909.41;;;9.91;100.00
73821;BME280;62150;43.582;1.456;2024-02-14T08:15:34;100911.13;;;9.91;100.00
73821;BME280;62150;43.582;1.456;2024-02-14T08:18:02;100917.84;;;9.96;100.00
73821;BME280;62150;43.582;1.456;2024-02-14T08:20:30;100917.97;;;9.15;100.00
73821;BME280;62150;43.582;1.456;2024-02-14T08:23:01;100921.38;;;8.72;100.00
73821;BME280;62150;43.582;1.456;2024-02-14T08:25:29;100925.84;;;9.04;100.00
73821;BME280;62150;43.582;1.456;2024-02-14T08:27:57;100917.66;;;9.30;100.00
73821;BME280;62150;43.582;1.456;2024-02-14T08:30:24;100911.94;;;9.56;100.00
73821;BME280;62150;43.582;1.456;2024-02-14T08:32:53;100909.50;;;9.87;100.00
73821;BME280;62150;43.582;1.456;2024-02-14T08:35:20;100912.00;;;9.13;100.00
73821;BME280;62150;43.582;1.456;2024-02-14T08:37:48;100910.84;;;9.66;100.00
73821;BME280;62150;43.582;1.456;2024-02-14T08:40:17;100907.94;;;9.80;100.00
73821;BME280;62150;43.582;1.456;2024-02-14T08:42:45;100905.66;;;9.30;100.00
73821;BME280;62150;43.582;1.456;2024-02-14T08:45:13;100903.09;;;9.69;100.00
73821;BME280;62150;43.582;1.456;2024-02-14T08:47:44;100908.44;;;9.60;100.00
73821;BME280;62150;43.582;1.456;2024-02-14T08:50:11;100908.28;;;9.66;100.00
73821;BME280;62150;43.582;1.456;2024-02-14T08:52:39;100908.31;;;9.26;100.00
73821;BME280;62150;43.582;1.456;2024-02-14T08:55:07;100906.69;;;9.22;100.00
73821;BME280;62150;43.582;1.456;2024-02-14T08:57:42;100911.56;;;9.34;100.00
73821;BME280;62150;43.582;1.456;2024-02-14T09:00:11;100908.94;;;8.97;100.00
73821;BME280;62150;43.582;1.456;2024-02-14T09:02:40;100913.47;;;9.26;100.00
73821;BME280;62150;43.582;1.456;2024-02-14T09:05:08;100912.81;;;9.55;100.00
73821;BME280;62150;43.582;1.456;2024-02-14T09:07:36;100909.75;;;8.99;100.00
73821;BME280;62150;43.582;1.456;2024-02-14T09:10:04;100907.41;;;9.28;100.00
73821;BME280;62150;43.582;1.456;2024-02-14T09:12:32;100909.34;;;9.57;100.00
73821;BME280;62150;43.582;1.456;2024-02-14T09:15:01;100912.53;;;9.67;100.00
73821;BME280;62150;43.582;1.456;2024-02-14T09:17:31;100906.84;;;9.54;100.00
73821;BME280;62150;43.582;1.456;2024-02-14T09:19:58;100902.16;;;9.71;100.00
73821;BME280;62150;43.582;1.456;2024-02-14T09:22:26;100902.78;;;9.81;100.00
73821;BME280;62150;43.582;1.456;2024-02-14T09:24:55;100902.69;;;9.49;100.00
73821;BME280;62150;43.582;1.456;2024-02-14T09:27:24;100905.13;;;9.55;100.00
73821;BME280;62150;43.582;1.456;2024-02-14T09:29:51;100913.59;;;9.58;100.00
73821;BME280;62150;43.582;1.456;2024-02-14T09:32:20;100905.38;;;9.80;100.00
73821;BME280;62150;43.582;1.456;2024-02-14T09:34:47;100895.97;;;9.80;100.00
73821;BME280;62150;43.582;1.456;2024-02-14T09:37:15;100900.97;;;9.86;100.00
73821;BME280;62150;43.582;1.456;2024-02-14T09:39:43;100895.81;;;9.86;100.00
73821;BME280;62150;43.582;1.456;2024-02-14T09:42:14;100896.91;;;9.76;100.00
73821;BME280;62150;43.582;1.456;2024-02-14T09:44:44;100893.22;;;9.88;100.00
73821;BME280;62150;43.582;1.456;2024-02-14T09:47:13;100893.59;;;10.06;100.00
73821;BME280;62150;43.582;1.456;2024-02-14T09:49:43;100890.78;;;10.17;100.00
73821;BME280;62150;43.582;1.456;2024-02-14T09:52:12;100884.53;;;10.29;100.00
73821;BME280;62150;43.582;1.456;2024-02-14T09:54:40;100887.59;;;10.07;100.00
73821;BME280;62150;43.582;1.456;2024-02-14T09:57:07;100881.94;;;10.29;100.00
73821;BME280;62150;43.582;1.456;2024-02-14T09:59:36;100882.59;;;10.37;100.00
73821;BME280;62150;43.582;1.456;2024-02-14T10:02:04;100886.81;;;10.39;100.00
73821;BME280;62150;43.582;1.456;2024-02-14T10:04:32;100882.09;;;10.55;100.00
73821;BME280;62150;43.582;1.456;2024-02-14T10:07:01;100875.69;;;10.39;100.00
73821;BME280;62150;43.582;1.456;2024-02-14T10:09:29;100882.19;;;10.52;100.00
73821;BME280;62150;43.582;1.456;2024-02-14T10:11:56;100881.69;;;10.70;100.00
73821;BME280;62150;43.582;1.456;2024-02-14T10:14:24;100878.19;;;10.73;100.00
73821;BME280;62150;43.582;1.456;2024-02-14T10:16:52;100879.59;;;10.83;100.00
73821;BME280;62150;43.582;1.456;2024-02-14T10:19:19;100880.06;;;10.97;100.00
73821;BME280;62150;43.582;1.456;2024-02-14T10:21:56;100877.19;;;11.08;100.00
73821;BME280;62150;43.582;1.456;2024-02-14T10:24:26;100871.78;;;11.16;100.00
73821;BME280;62150;43.582;1.456;2024-02-14T10:26:54;100868.69;;;11.06;100.00
73821;BME280;62150;43.582;1.456;2024-02-14T10:29:23;100866.22;;;11.01;100.00
73821;BME280;62150;43.582;1.456;2024-02-14T10:31:52;100873.59;;;11.12;100.00
73821;BME280;62150;43.582;1.456;2024-02-14T10:34:19;100871.91;;;11.40;100.00
73821;BME280;62150;43.582;1.456;2024-02-14T10:36:53;100872.81;;;11.39;100.00
73821;BME280;62150;43.582;1.456;2024-02-14T10:39:21;100866.41;;;11.51;100.00
73821;BME280;62150;43.582;1.456;2024-02-14T10:41:50;100864.78;;;11.49;100.00
73821;BME280;62150;43.582;1.456;2024-02-14T10:44:17;100873.91;;;11.59;100.00
73821;BME280;62150;43.582;1.456;2024-02-14T10:46:46;100864.16;;;11.68;100.00
73821;BME280;62150;43.582;1.456;2024-02-14T10:49:15;100863.00;;;11.79;100.00
73821;BME280;62150;43.582;1.456;2024-02-14T10:51:43;100859.69;;;12.01;100.00
73821;BME280;62150;43.582;1.456;2024-02-14T10:54:15;100860.66;;;11.97;100.00
73821;BME280;62150;43.582;1.456;2024-02-14T10:56:48;100867.59;;;11.95;100.00
73821;BME280;62150;43.582;1.456;2024-02-14T10:59:19;100860.22;;;12.11;100.00
73821;BME280;62150;43.582;1.456;2024-02-14T11:01:47;100853.09;;;12.18;100.00
73821;BME280;62150;43.582;1.456;2024-02-14T11:04:16;100859.63;;;12.28;100.00
73821;BME280;62150;43.582;1.456;2024-02-14T11:06:47;100858.63;;;12.32;100.00
73821;BME280;62150;43.582;1.456;2024-02-14T11:09:15;100851.78;;;12.31;100.00
73821;BME280;62150;43.582;1.456;2024-02-14T11:11:43;100855.63;;;12.67;100.00
73821;BME280;62150;43.582;1.456;2024-02-14T11:14:17;100849.91;;;12.59;100.00
73821;BME280;62150;43.582;1.456;2024-02-14T11:16:46;100846.44;;;12.84;100.00
73821;BME280;62150;43.582;1.456;2024-02-14T11:19:14;100846.75;;;12.76;100.00
73821;BME280;62150;43.582;1.456;2024-02-14T11:21:44;100846.44;;;13.07;100.00
73821;BME280;62150;43.582;1.456;2024-02-14T11:24:13;100832.53;;;12.88;100.00
73821;BME280;62150;43.582;1.456;2024-02-14T11:26:47;100840.44;;;13.06;100.00
73821;BME280;62150;43.582;1.456;2024-02-14T11:29:16;100828.13;;;13.13;100.00
73821;BME280;62150;43.582;1.456;2024-02-14T11:31:45;100821.72;;;13.23;100.00
73821;BME280;62150;43.582;1.456;2024-02-14T11:34:14;100821.50;;;13.29;100.00
73821;BME280;62150;43.582;1.456;2024-02-14T11:36:43;100816.66;;;13.44;100.00
73821;BME280;62150;43.582;1.456;2024-02-14T11:39:10;100812.13;;;13.49;100.00
73821;BME280;62150;43.582;1.456;2024-02-14T11:41:39;100802.66;;;13.69;100.00
73821;BME280;62150;43.582;1.456;2024-02-14T11:44:08;100799.66;;;13.80;100.00
73821;BME280;62150;43.582;1.456;2024-02-14T11:46:39;100800.16;;;13.68;100.00
73821;BME280;62150;43.582;1.456;2024-02-14T11:49:08;100802.91;;;14.24;100.00
73821;BME280;62150;43.582;1.456;2024-02-14T11:51:36;100796.16;;;14.01;100.00
73821;BME280;62150;43.582;1.456;2024-02-14T11:54:05;100792.28;;;14.12;100.00
73821;BME280;62150;43.582;1.456;2024-02-14T11:56:33;100785.50;;;14.28;100.00
73821;BME280;62150;43.582;1.456;2024-02-14T11:59:01;100786.72;;;14.39;100.00
73821;BME280;62150;43.582;1.456;2024-02-14T12:01:32;100780.47;;;14.25;100.00
73821;BME280;62150;43.582;1.456;2024-02-14T12:04:03;100776.72;;;14.52;100.00
73821;BME280;62150;43.582;1.456;2024-02-14T12:06:33;100773.56;;;14.64;100.00
73821;BME280;62150;43.582;1.456;2024-02-14T12:09:01;100770.97;;;14.64;100.00
73821;BME280;62150;43.582;1.456;2024-02-14T12:11:31;100769.47;;;14.96;100.00
73821;BME280;62150;43.582;1.456;2024-02-14T12:14:01;100753.88;;;14.98;100.00
73821;BME280;62150;43.582;1.456;2024-02-14T12:16:30;100758.41;;;14.93;100.00
73821;BME280;62150;43.582;1.456;2024-02-14T12:19:07;100746.56;;;15.42;100.00
73821;BME280;62150;43.582;1.456;2024-02-14T12:21:36;100739.59;;;15.25;100.00
73821;BME280;62150;43.582;1.456;2024-02-14T12:24:06;100733.47;;;15.45;100.00
73821;BME280;62150;43.582;1.456;2024-02-14T12:26:34;100728.06;;;15.67;100.00
73821;BME280;62150;43.582;1.456;2024-02-14T12:29:02;100729.88;;;15.65;100.00
73821;BME280;62150;43.582;1.456;2024-02-14T12:31:31;100727.13;;;15.85;100.00
73821;BME280;62150;43.582;1.456;2024-02-14T12:33:58;100717.78;;;15.98;100.00
73821;BME280;62150;43.582;1.456;2024-02-14T12:36:29;100726.22;;;16.19;100.00
73821;BME280;62150;43.582;1.456;2024-02-14T12:38:57;100723.09;;;16.13;100.00
73821;BME280;62150;43.582;1.456;2024-02-14T12:41:24;100714.00;;;16.21;100.00
73821;BME280;62150;43.582;1.456;2024-02-14T12:43:55;100710.59;;;16.52;100.00
73821;BME280;62150;43.582;1.456;2024-02-14T12:46:23;100703.00;;;16.81;100.00
73821;BME280;62150;43.582;1.456;2024-02-14T12:48:51;100697.38;;;16.88;100.00
73821;BME280;62150;43.582;1.456;2024-02-14T12:51:18;100696.19;;;16.94;100.00
73821;BME280;62150;43.582;1.456;2024-02-14T12:53:47;100680.81;;;17.05;100.00
73821;BME280;62150;43.582;1.456;2024-02-14T12:56:15;100683.81;;;17.13;100.00
73821;BME280;62150;43.582;1.456;2024-02-14T12:58:42;100677.66;;;17.30;100.00
73821;BME280;62150;43.582;1.456;2024-02-14T13:01:10;100674.66;;;18.08;100.00
73821;BME280;62150;43.582;1.456;2024-02-14T13:03:38;100675.63;;;17.93;100.00
73821;BME280;62150;43.582;1.456;2024-02-14T13:06:06;100674.47;;;18.26;100.00
73821;BME280;62150;43.582;1.456;2024-02-14T13:08:33;100670.31;;;18.64;100.00
73821;BME280;62150;43.582;1.456;2024-02-14T13:11:03;100671.47;;;18.73;100.00
73821;BME280;62150;43.582;1.456;2024-02-14T13:13:31;100665.28;;;18.88;100.00
73821;BME280;62150;43.582;1.456;2024-02-14T13:15:58;100670.72;;;18.98;100.00
73821;BME280;62150;43.582;1.456;2024-02-14T13:18:26;100670.34;;;19.17;100.00
73821;BME280;62150;43.582;1.456;2024-02-14T13:20:54;100664.47;;;19.53;100.00
73821;BME280;62150;43.582;1.456;2024-02-14T13:23:25;100663.63;;;19.65;100.00
73821;BME280;62150;43.582;1.456;2024-02-14T13:25:53;100647.88;;;19.66;100.00
73821;BME280;62150;43.582;1.456;2024-02-14T13:28:22;100651.22;;;19.68;100.00
73821;BME280;62150;43.582;1.456;2024-02-14T13:30:49;100639.88;;;19.57;100.00
73821;BME280;62150;43.582;1.456;2024-02-14T13:33:17;100646.19;;;19.91;100.00
73821;BME280;62150;43.582;1.456;2024-02-14T13:35:44;100645.88;;;20.32;100.00
73821;BME280;62150;43.582;1.456;2024-02-14T13:38:12;100641.13;;;20.50;100.00
73821;BME280;62150;43.582;1.456;2024-02-14T13:40:40;100639.56;;;20.47;100.00
73821;BME280;62150;43.582;1.456;2024-02-14T13:43:07;100637.47;;;20.52;100.00
73821;BME280;62150;43.582;1.456;2024-02-14T13:45:43;100629.75;;;20.74;100.00
73821;BME280;62150;43.582;1.456;2024-02-14T13:48:11;100628.09;;;20.85;100.00
73821;BME280;62150;43.582;1.456;2024-02-14T13:50:38;100624.81;;;20.94;100.00
73821;BME280;62150;43.582;1.456;2024-02-14T13:53:07;100625.84;;;20.56;100.00
73821;BME280;62150;43.582;1.456;2024-02-14T13:55:34;100621.94;;;20.86;100.00
73821;BME280;62150;43.582;1.456;2024-02-14T13:58:02;100623.25;;;21.26;100.00
73821;BME280;62150;43.582;1.456;2024-02-14T14:00:29;100616.03;;;21.41;100.00
73821;BME280;62150;43.582;1.456;2024-02-14T14:03:00;100613.16;;;21.22;100.00
73821;BME280;62150;43.582;1.456;2024-02-14T14:05:27;100611.66;;;21.06;100.00
73821;BME280;62150;43.582;1.456;2024-02-14T14:07:55;100614.13;;;21.43;100.00
73821;BME280;62150;43.582;1.456;2024-02-14T14:10:23;100616.41;;;21.48;100.00
73821;BME280;62150;43.582;1.456;2024-02-14T14:12:51;100614.03;;;20.98;100.00
73821;BME280;62150;43.582;1.456;2024-02-14T14:15:19;100603.72;;;21.19;100.00
73821;BME280;62150;43.582;1.456;2024-02-14T14:17:48;100602.00;;;21.53;100.00
73821;BME280;62150;43.582;1.456;2024-02-14T14:20:17;100606.66;;;21.38;100.00
73821;BME280;62150;43.582;1.456;2024-02-14T14:22:45;100599.94;;;21.12;100.00
73821;BME280;62150;43.582;1.456;2024-02-14T14:25:12;100593.09;;;21.33;100.00
73821;BME280;62150;43.582;1.456;2024-02-14T14:27:40;100588.59;;;21.47;100.00
73821;BME280;62150;43.582;1.456;2024-02-14T14:30:09;100586.91;;;21.23;100.00
73821;BME280;62150;43.582;1.456;2024-02-14T14:32:37;100593.56;;;21.72;100.00
73821;BME280;62150;43.582;1.456;2024-02-14T14:35:05;100593.34;;;21.42;100.00
73821;BME280;62150;43.582;1.456;2024-02-14T14:37:34;100593.44;;;21.62;100.00
73821;BME280;62150;43.582;1.456;2024-02-14T14:40:01;100594.03;;;21.55;100.00
73821;BME280;62150;43.582;1.456;2024-02-14T14:42:31;100595.69;;;21.89;100.00
73821;BME280;62150;43.582;1.456;2024-02-14T14:44:57;100599.00;;;22.14;100.00
73821;BME280;62150;43.582;1.456;2024-02-14T14:47:25;100600.91;;;22.12;100.00
73821;BME280;62150;43.582;1.456;2024-02-14T14:49:53;100596.19;;;22.37;100.00
73821;BME280;62150;43.582;1.456;2024-02-14T14:52:20;100591.59;;;22.19;100.00
73821;BME280;62150;43.582;1.456;2024-02-14T14:54:49;100583.00;;;22.28;100.00
73821;BME280;62150;43.582;1.456;2024-02-14T14:57:17;100572.84;;;21.91;100.00
73821;BME280;62150;43.582;1.456;2024-02-14T14:59:44;100554.66;;;22.44;100.00
73821;BME280;62150;43.582;1.456;2024-02-14T15:02:12;100551.94;;;22.34;100.00
73821;BME280;62150;43.582;1.456;2024-02-14T15:04:39;100554.91;;;22.41;100.00
73821;BME280;62150;43.582;1.456;2024-02-14T15:07:10;100554.00;;;22.20;100.00
73821;BME280;62150;43.582;1.456;2024-02-14T15:09:37;100538.44;;;22.71;100.00
73821;BME280;62150;43.582;1.456;2024-02-14T15:12:07;100533.91;;;22.52;100.00
73821;BME280;62150;43.582;1.456;2024-02-14T15:14:34;100525.44;;;22.28;100.00
73821;BME280;62150;43.582;1.456;2024-02-14T15:17:02;100520.41;;;22.36;100.00
73821;BME280;62150;43.582;1.456;2024-02-14T15:19:31;100512.97;;;22.20;100.00
73821;BME280;62150;43.582;1.456;2024-02-14T15:21:58;100519.81;;;22.53;100.00
73821;BME280;62150;43.582;1.456;2024-02-14T15:24:31;100523.97;;;22.35;100.00
73821;BME280;62150;43.582;1.456;2024-02-14T15:27:00;100517.91;;;22.34;100.00
73821;BME280;62150;43.582;1.456;2024-02-14T15:29:30;100517.00;;;22.24;100.00
73821;BME280;62150;43.582;1.456;2024-02-14T15:32:15;100516.69;;;22.18;100.00
73821;BME280;62150;43.582;1.456;2024-02-14T15:35:00;100509.47;;;21.88;100.00
73821;BME280;62150;43.582;1.456;2024-02-14T15:37:30;100516.28;;;22.22;100.00
73821;BME280;62150;43.582;1.456;2024-02-14T15:39:57;100523.44;;;22.20;100.00
73821;BME280;62150;43.582;1.456;2024-02-14T15:42:25;100515.28;;;22.14;100.00
73821;BME280;62150;43.582;1.456;2024-02-14T15:44:54;100515.88;;;21.95;100.00
73821;BME280;62150;43.582;1.456;2024-02-14T15:47:22;100511.72;;;22.03;100.00
73821;BME280;62150;43.582;1.456;2024-02-14T15:49:49;100514.09;;;22.06;100.00
73821;BME280;62150;43.582;1.456;2024-02-14T15:52:17;100513.59;;;22.13;100.00
73821;BME280;62150;43.582;1.456;2024-02-14T15:54:44;100514.19;;;22.16;100.00
73821;BME280;62150;43.582;1.456;2024-02-14T15:57:12;100514.31;;;22.15;100.00
73821;BME280;62150;43.582;1.456;2024-02-14T15:59:39;100511.25;;;21.87;100.00
73821;BME280;62150;43.582;1.456;2024-02-14T16:02:08;100498.16;;;22.10;100.00
73821;BME280;62150;43.582;1.456;2024-02-14T16:04:36;100487.81;;;21.97;100.00
73821;BME280;62150;43.582;1.456;2024-02-14T16:07:04;100483.78;;;22.04;100.00
73821;BME280;62150;43.582;1.456;2024-02-14T16:09:32;100478.28;;;21.96;100.00
73821;BME280;62150;43.582;1.456;2024-02-14T16:12:00;100478.41;;;21.94;100.00
73821;BME280;62150;43.582;1.456;2024-02-14T16:14:27;100475.94;;;21.93;100.00
73821;BME280;62150;43.582;1.456;2024-02-14T16:16:58;100468.69;;;21.85;100.00
73821;BME280;62150;43.582;1.456;2024-02-14T16:19:27;100463.47;;;21.85;100.00
73821;BME280;62150;43.582;1.456;2024-02-14T16:21:55;100464.94;;;21.78;100.00
73821;BME280;62150;43.582;1.456;2024-02-14T16:24:25;100468.78;;;21.52;100.00
73821;BME280;62150;43.582;1.456;2024-02-14T16:26:53;100471.84;;;21.68;100.00
73821;BME280;62150;43.582;1.456;2024-02-14T16:29:20;100463.19;;;21.56;100.00
73821;BME280;62150;43.582;1.456;2024-02-14T16:31:48;100472.81;;;21.56;100.00
73821;BME280;62150;43.582;1.456;2024-02-14T16:34:15;100459.59;;;21.68;100.00
73821;BME280;62150;43.582;1.456;2024-02-14T16:36:45;100456.75;;;21.71;100.00
73821;BME280;62150;43.582;1.456;2024-02-14T16:39:12;100457.00;;;21.57;100.00
73821;BME280;62150;43.582;1.456;2024-02-14T16:41:43;100460.47;;;21.58;100.00
73821;BME280;62150;43.582;1.456;2024-02-14T16:44:10;100454.22;;;21.38;100.00
73821;BME280;62150;43.582;1.456;2024-02-14T16:46:38;100451.38;;;21.30;100.00
73821;BME280;62150;43.582;1.456;2024-02-14T16:49:06;100450.66;;;21.39;100.00
73821;BME280;62150;43.582;1.456;2024-02-14T16:51:35;100445.78;;;21.23;100.00
73821;BME280;62150;43.582;1.456;2024-02-14T16:54:05;100454.78;;;21.19;100.00
73821;BME280;62150;43.582;1.456;2024-02-14T16:56:32;100438.41;;;21.28;100.00
73821;BME280;62150;43.582;1.456;2024-02-14T16:59:00;100438.88;;;21.45;100.00
73821;BME280;62150;43.582;1.456;2024-02-14T17:01:27;100436.16;;;21.24;100.00
73821;BME280;62150;43.582;1.456;2024-02-14T17:03:56;100438.19;;;21.09;100.00
73821;BME280;62150;43.582;1.456;2024-02-14T17:06:23;100434.84;;;21.29;100.00
73821;BME280;62150;43.582;1.456;2024-02-14T17:08:52;100440.56;;;21.12;100.00
73821;BME280;62150;43.582;1.456;2024-02-14T17:11:21;100428.66;;;21.19;100.00
73821;BME280;62150;43.582;1.456;2024-02-14T17:13:49;100427.81;;;21.19;100.00
73821;BME280;62150;43.582;1.456;2024-02-14T17:16:16;100437.44;;;21.18;100.00
73821;BME280;62150;43.582;1.456;2024-02-14T17:18:43;100440.56;;;21.12;100.00
73821;BME280;62150;43.582;1.456;2024-02-14T17:21:11;100449.56;;;21.19;100.00
73821;BME280;62150;43.582;1.456;2024-02-14T17:23:39;100440.69;;;21.11;100.00
73821;BME280;62150;43.582;1.456;2024-02-14T17:26:07;100443.41;;;21.09;100.00